sensor_id;sensor_type;location;lat;lon;timestamp;pressure;altitude;pressure_sealevel;temperature;humidity
51067;BME280;37112;45.892;-123.962;2023-06-14T00:00:45;101991.75;;;15.54;79.30
51067;BME280;37112;45.892;-123.962;2023-06-14T00:03:25;101993.91;;;15.57;79.83
51067;BME280;37112;45.892;-123.962;2023-06-14T00:05:55;101993.27;;;15.56;79.26
51067;BME280;37112;45.892;-123.962;2023-06-14T00:08:29;101992.96;;;15.52;79.19
51067;BME280;37112;45.892;-123.962;2023-06-14T00:10:57;101994.67;;;15.43;78.71
51067;BME280;37112;45.892;-123.962;2023-06-14T00:13:16;101992.36;;;15.35;78.67
51067;BME280;37112;45.892;-123.962;2023-06-14T00:15:44;101993.36;;;15.28;79.20
51067;BME280;37112;45.892;-123.962;2023-06-14T00:18:09;101993.91;;;15.25;79.35
51067;BME280;37112;45.892;-123.962;2023-06-14T00:20:42;101988.46;;;15.23;79.79
51067;BME280;37112;45.892;-123.962;2023-06-14T00:23:12;101990.48;;;15.18;78.96
51067;BME280;37112;45.892;-123.962;2023-06-14T00:25:31;101988.42;;;15.08;78.51
51067;BME280;37112;45.892;-123.962;2023-06-14T00:28:07;101988.24;;;14.97;78.42
51067;BME280;37112;45.892;-123.962;2023-06-14T00:30:42;101985.73;;;14.97;78.90
51067;BME280;37112;45.892;-123.962;2023-06-14T00:33:01;101987.22;;;14.94;78.49
51067;BME280;37112;45.892;-123.962;2023-06-14T00:35:36;101983.30;;;14.91;79.06
51067;BME280;37112;45.892;-123.962;2023-06-14T00:38:10;101981.08;;;14.90;78.96
51067;BME280;37112;45.892;-123.962;2023-06-14T00:40:36;101974.34;;;14.94;79.64
51067;BME280;37112;45.892;-123.962;2023-06-14T00:43:14;101969.98;;;14.95;78.92
51067;BME280;37112;45.892;-123.962;2023-06-14T00:45:48;101968.33;;;14.98;79.55
51067;BME280;37112;45.892;-123.962;2023-06-14T00:48:16;101965.81;;;15.01;79.41
51067;BME280;37112;45.892;-123.962;2023-06-14T00:50:52;101971.34;;;15.01;79.32
51067;BME280;37112;45.892;-123.962;2023-06-14T00:53:26;101964.89;;;15.02;79.47
51067;BME280;37112;45.892;-123.962;2023-06-14T00:55:54;101964.27;;;15.05;79.52
51067;BME280;37112;45.892;-123.962;2023-06-14T00:58:17;101963.36;;;15.06;78.99
51067;BME280;37112;45.892;-123.962;2023-06-14T01:00:54;101960.73;;;15.02;78.39
51067;BME280;37112;45.892;-123.962;2023-06-14T01:03:17;101963.17;;;15.00;78.33
51067;BME280;37112;45.892;-123.962;2023-06-14T01:05:59;101963.30;;;15.01;78.58
51067;BME280;37112;45.892;-123.962;2023-06-14T01:08:44;101963.33;;;15.01;78.47
51067;BME280;37112;45.892;-123.962;2023-06-14T01:11:21;101964.84;;;15.05;79.08
51067;BME280;37112;45.892;-123.962;2023-06-14T01:13:50;101962.58;;;15.07;78.60
51067;BME280;37112;45.892;-123.962;2023-06-14T01:16:28;101958.67;;;15.06;78.25
51067;BME280;37112;45.892;-123.962;2023-06-14T01:19:04;101960.49;;;15.00;77.70
51067;BME280;37112;45.892;-123.962;2023-06-14T01:21:28;101953.90;;;14.97;77.55
51067;BME280;37112;45.892;-123.962;2023-06-14T01:23:58;101958.05;;;14.94;77.73
51067;BME280;37112;45.892;-123.962;2023-06-14T01:26:29;101958.77;;;14.94;78.05
51067;BME280;37112;45.892;-123.962;2023-06-14T01:28:57;101956.63;;;14.94;77.75
51067;BME280;37112;45.892;-123.962;2023-06-14T01:31:32;101955.64;;;14.92;77.81
51067;BME280;37112;45.892;-123.962;2023-06-14T01:34:14;101959.70;;;14.94;77.93
51067;BME280;37112;45.892;-123.962;2023-06-14T01:36:48;101953.40;;;14.94;77.60
51067;BME280;37112;45.892;-123.962;2023-06-14T01:39:14;101955.02;;;14.99;78.02
51067;BME280;37112;45.892;-123.962;2023-06-14T01:41:49;101958.30;;;15.07;78.11
51067;BME280;37112;45.892;-123.962;2023-06-14T01:44:24;101953.38;;;15.02;77.27
51067;BME280;37112;45.892;-123.962;2023-06-14T01:46:53;101960.01;;;14.94;77.02
51067;BME280;37112;45.892;-123.962;2023-06-14T01:49:27;101963.01;;;14.87;76.90
51067;BME280;37112;45.892;-123.962;2023-06-14T01:51:55;101967.89;;;14.75;76.60
51067;BME280;37112;45.892;-123.962;2023-06-14T01:54:29;101964.30;;;14.62;76.60
51067;BME280;37112;45.892;-123.962;2023-06-14T01:57:03;101963.16;;;14.51;76.58
51067;BME280;37112;45.892;-123.962;2023-06-14T01:59:38;101965.72;;;14.42;76.65
51067;BME280;37112;45.892;-123.962;2023-06-14T02:02:11;101963.62;;;14.38;77.02
51067;BME280;37112;45.892;-123.962;2023-06-14T02:04:44;101965.52;;;14.37;77.15
51067;BME280;37112;45.892;-123.962;2023-06-14T02:07:11;101964.41;;;14.32;77.16
51067;BME280;37112;45.892;-123.962;2023-06-14T02:09:33;101968.08;;;14.27;77.26
51067;BME280;37112;45.892;-123.962;2023-06-14T02:12:05;101971.00;;;14.23;77.61
51067;BME280;37112;45.892;-123.962;2023-06-14T02:14:33;101975.52;;;14.22;77.79
51067;BME280;37112;45.892;-123.962;2023-06-14T02:16:59;101971.49;;;14.24;78.15
51067;BME280;37112;45.892;-123.962;2023-06-14T02:19:30;101971.86;;;14.27;78.26
51067;BME280;37112;45.892;-123.962;2023-06-14T02:21:53;101973.22;;;14.31;78.48
51067;BME280;37112;45.892;-123.962;2023-06-14T02:24:08;101968.20;;;14.34;78.61
51067;BME280;37112;45.892;-123.962;2023-06-14T02:26:27;101967.52;;;14.36;78.58
51067;BME280;37112;45.892;-123.962;2023-06-14T02:28:51;101963.48;;;14.35;78.38
51067;BME280;37112;45.892;-123.962;2023-06-14T02:31:25;101963.68;;;14.37;78.77
51067;BME280;37112;45.892;-123.962;2023-06-14T02:33:44;101966.05;;;14.42;78.95
51067;BME280;37112;45.892;-123.962;2023-06-14T02:35:59;101967.23;;;14.43;78.74
51067;BME280;37112;45.892;-123.962;2023-06-14T02:38:16;101962.30;;;14.45;78.77
51067;BME280;37112;45.892;-123.962;2023-06-14T02:40:34;101961.70;;;14.49;78.94
51067;BME280;37112;45.892;-123.962;2023-06-14T02:42:48;101959.58;;;14.54;79.04
51067;BME280;37112;45.892;-123.962;2023-06-14T02:45:06;101952.89;;;14.56;78.94
51067;BME280;37112;45.892;-123.962;2023-06-14T02:47:31;101957.73;;;14.58;78.90
51067;BME280;37112;45.892;-123.962;2023-06-14T02:50:09;101957.23;;;14.60;78.89
51067;BME280;37112;45.892;-123.962;2023-06-14T02:52:45;101958.65;;;14.63;78.88
51067;BME280;37112;45.892;-123.962;2023-06-14T02:55:06;101961.86;;;14.66;78.83
51067;BME280;37112;45.892;-123.962;2023-06-14T02:57:46;101962.61;;;14.68;78.77
51067;BME280;37112;45.892;-123.962;2023-06-14T03:00:03;101961.79;;;14.67;78.45
51067;BME280;37112;45.892;-123.962;2023-06-14T03:02:30;101967.20;;;14.66;78.54
51067;BME280;37112;45.892;-123.962;2023-06-14T03:05:06;101971.27;;;14.67;78.34
51067;BME280;37112;45.892;-123.962;2023-06-14T03:07:42;101972.24;;;14.63;78.01
51067;BME280;37112;45.892;-123.962;2023-06-14T03:10:00;101976.11;;;14.61;77.92
51067;BME280;37112;45.892;-123.962;2023-06-14T03:12:28;101975.61;;;14.56;77.27
51067;BME280;37112;45.892;-123.962;2023-06-14T03:14:44;101978.48;;;14.47;76.90
51067;BME280;37112;45.892;-123.962;2023-06-14T03:17:11;101983.69;;;14.40;77.10
51067;BME280;37112;45.892;-123.962;2023-06-14T03:19:29;101984.70;;;14.38;77.26
51067;BME280;37112;45.892;-123.962;2023-06-14T03:21:47;101977.92;;;14.33;76.93
51067;BME280;37112;45.892;-123.962;2023-06-14T03:24:03;101979.53;;;14.27;76.95
51067;BME280;37112;45.892;-123.962;2023-06-14T03:26:37;101980.65;;;14.17;76.65
51067;BME280;37112;45.892;-123.962;2023-06-14T03:29:12;101975.27;;;14.07;76.49
51067;BME280;37112;45.892;-123.962;2023-06-14T03:32:02;101970.30;;;14.01;77.14
51067;BME280;37112;45.892;-123.962;2023-06-14T03:34:41;101966.54;;;13.98;77.42
51067;BME280;37112;45.892;-123.962;2023-06-14T03:37:11;101959.23;;;14.00;77.71
51067;BME280;37112;45.892;-123.962;2023-06-14T03:39:30;101957.82;;;14.03;78.05
51067;BME280;37112;45.892;-123.962;2023-06-14T03:42:12;101953.65;;;14.06;78.31
51067;BME280;37112;45.892;-123.962;2023-06-14T03:44:33;101961.88;;;14.09;78.21
51067;BME280;37112;45.892;-123.962;2023-06-14T03:47:09;101968.58;;;14.08;77.64
51067;BME280;37112;45.892;-123.962;2023-06-14T03:49:37;101970.46;;;14.04;77.52
51067;BME280;37112;45.892;-123.962;2023-06-14T03:51:56;101975.66;;;14.00;77.14
51067;BME280;37112;45.892;-123.962;2023-06-14T03:54:23;101973.76;;;13.97;77.22
51067;BME280;37112;45.892;-123.962;2023-06-14T03:57:20;101971.21;;;13.94;77.43
51067;BME280;37112;45.892;-123.962;2023-06-14T03:59:46;101976.14;;;13.92;77.47
51067;BME280;37112;45.892;-123.962;2023-06-14T04:02:14;101980.04;;;13.90;77.54
51067;BME280;37112;45.892;-123.962;2023-06-14T04:04:39;101980.06;;;13.87;77.62
51067;BME280;37112;45.892;-123.962;2023-06-14T04:07:18;101978.00;;;13.86;77.80
51067;BME280;37112;45.892;-123.962;2023-06-14T04:09:38;101981.13;;;13.84;77.80
51067;BME280;37112;45.892;-123.962;2023-06-14T04:11:56;101983.87;;;13.83;77.83
51067;BME280;37112;45.892;-123.962;2023-06-14T04:14:20;101987.28;;;13.80;77.90
51067;BME280;37112;45.892;-123.962;2023-06-14T04:16:33;101986.97;;;13.76;78.01
51067;BME280;37112;45.892;-123.962;2023-06-14T04:18:52;101990.23;;;13.69;77.75
51067;BME280;37112;45.892;-123.962;2023-06-14T04:21:25;101995.56;;;13.58;77.76
51067;BME280;37112;45.892;-123.962;2023-06-14T04:23:51;102000.50;;;13.47;77.95
51067;BME280;37112;45.892;-123.962;2023-06-14T04:26:10;101994.54;;;13.36;77.85
51067;BME280;37112;45.892;-123.962;2023-06-14T04:28:44;101993.89;;;13.26;78.09
51067;BME280;37112;45.892;-123.962;2023-06-14T04:31:18;101994.80;;;13.17;78.18
51067;BME280;37112;45.892;-123.962;2023-06-14T04:33:53;101991.34;;;13.08;78.28
51067;BME280;37112;45.892;-123.962;2023-06-14T04:36:19;101997.05;;;13.04;78.54
51067;BME280;37112;45.892;-123.962;2023-06-14T04:38:55;101997.25;;;13.01;78.52
51067;BME280;37112;45.892;-123.962;2023-06-14T04:41:11;101999.34;;;12.99;78.66
51067;BME280;37112;45.892;-123.962;2023-06-14T04:43:37;102000.22;;;12.96;78.82
51067;BME280;37112;45.892;-123.962;2023-06-14T04:46:11;101999.20;;;12.95;79.04
51067;BME280;37112;45.892;-123.962;2023-06-14T04:48:28;102002.11;;;12.91;79.03
51067;BME280;37112;45.892;-123.962;2023-06-14T04:50:49;102004.35;;;12.89;79.39
51067;BME280;37112;45.892;-123.962;2023-06-14T04:53:16;102007.55;;;12.90;79.63
51067;BME280;37112;45.892;-123.962;2023-06-14T04:55:37;102003.77;;;12.87;79.57
51067;BME280;37112;45.892;-123.962;2023-06-14T04:58:03;102005.22;;;12.83;79.59
51067;BME280;37112;45.892;-123.962;2023-06-14T05:00:29;102002.39;;;12.80;79.46
51067;BME280;37112;45.892;-123.962;2023-06-14T05:02:52;102004.45;;;12.78;79.56
51067;BME280;37112;45.892;-123.962;2023-06-14T05:05:28;102006.54;;;12.76;79.40
51067;BME280;37112;45.892;-123.962;2023-06-14T05:08:02;102007.27;;;12.72;79.31
51067;BME280;37112;45.892;-123.962;2023-06-14T05:10:24;102003.05;;;12.68;79.25
51067;BME280;37112;45.892;-123.962;2023-06-14T05:13:01;102003.66;;;12.61;78.90
51067;BME280;37112;45.892;-123.962;2023-06-14T05:15:37;102000.17;;;12.56;78.88
51067;BME280;37112;45.892;-123.962;2023-06-14T05:17:57;102004.16;;;12.51;78.61
51067;BME280;37112;45.892;-123.962;2023-06-14T05:20:16;102006.04;;;12.50;78.50
51067;BME280;37112;45.892;-123.962;2023-06-14T05:22:40;102009.61;;;12.46;77.79
51067;BME280;37112;45.892;-123.962;2023-06-14T05:25:08;102011.27;;;12.45;77.31
51067;BME280;37112;45.892;-123.962;2023-06-14T05:27:33;102016.09;;;12.45;76.97
51067;BME280;37112;45.892;-123.962;2023-06-14T05:29:52;102016.70;;;12.47;77.35
51067;BME280;37112;45.892;-123.962;2023-06-14T05:32:26;102021.82;;;12.51;77.68
51067;BME280;37112;45.892;-123.962;2023-06-14T05:34:50;102017.90;;;12.54;77.83
51067;BME280;37112;45.892;-123.962;2023-06-14T05:37:08;102015.25;;;12.57;77.86
51067;BME280;37112;45.892;-123.962;2023-06-14T05:39:43;102016.81;;;12.61;78.06
51067;BME280;37112;45.892;-123.962;2023-06-14T05:42:16;102013.15;;;12.66;78.06
51067;BME280;37112;45.892;-123.962;2023-06-14T05:44:51;102016.17;;;12.70;78.00
51067;BME280;37112;45.892;-123.962;2023-06-14T05:47:28;102019.98;;;12.74;78.05
51067;BME280;37112;45.892;-123.962;2023-06-14T05:50:01;102019.81;;;12.78;78.03
51067;BME280;37112;45.892;-123.962;2023-06-14T05:52:18;102027.08;;;12.81;77.99
51067;BME280;37112;45.892;-123.962;2023-06-14T05:54:56;102030.98;;;12.85;77.96
51067;BME280;37112;45.892;-123.962;2023-06-14T05:57:29;102028.45;;;12.89;77.91
51067;BME280;37112;45.892;-123.962;2023-06-14T06:00:05;102025.08;;;12.92;77.99
51067;BME280;37112;45.892;-123.962;2023-06-14T06:02:22;102034.73;;;12.94;78.05
51067;BME280;37112;45.892;-123.962;2023-06-14T06:04:59;102034.34;;;12.98;78.03
51067;BME280;37112;45.892;-123.962;2023-06-14T06:07:33;102034.18;;;13.01;78.09
51067;BME280;37112;45.892;-123.962;2023-06-14T06:10:14;102038.89;;;13.05;78.14
51067;BME280;37112;45.892;-123.962;2023-06-14T06:12:50;102038.85;;;13.09;78.05
51067;BME280;37112;45.892;-123.962;2023-06-14T06:15:26;102042.89;;;13.14;78.23
51067;BME280;37112;45.892;-123.962;2023-06-14T06:17:55;102042.00;;;13.17;78.10
51067;BME280;37112;45.892;-123.962;2023-06-14T06:20:20;102044.95;;;13.19;77.91
51067;BME280;37112;45.892;-123.962;2023-06-14T06:23:00;102047.45;;;13.19;77.74
51067;BME280;37112;45.892;-123.962;2023-06-14T06:25:34;102049.40;;;13.19;77.59
51067;BME280;37112;45.892;-123.962;2023-06-14T06:28:09;102047.85;;;13.18;77.44
51067;BME280;37112;45.892;-123.962;2023-06-14T06:30:35;102045.98;;;13.19;77.60
51067;BME280;37112;45.892;-123.962;2023-06-14T06:33:09;102047.13;;;13.21;77.70
51067;BME280;37112;45.892;-123.962;2023-06-14T06:35:43;102044.90;;;13.23;77.58
51067;BME280;37112;45.892;-123.962;2023-06-14T06:38:18;102038.79;;;13.24;77.65
51067;BME280;37112;45.892;-123.962;2023-06-14T06:40:41;102043.96;;;13.24;77.57
51067;BME280;37112;45.892;-123.962;2023-06-14T06:43:15;102045.98;;;13.23;77.29
51067;BME280;37112;45.892;-123.962;2023-06-14T06:45:51;102042.05;;;13.23;77.40
51067;BME280;37112;45.892;-123.962;2023-06-14T06:48:25;102047.91;;;13.24;77.59
51067;BME280;37112;45.892;-123.962;2023-06-14T06:50:54;102039.13;;;13.24;77.52
51067;BME280;37112;45.892;-123.962;2023-06-14T06:53:14;102040.92;;;13.24;77.51
51067;BME280;37112;45.892;-123.962;2023-06-14T06:55:53;102046.52;;;13.22;77.32
51067;BME280;37112;45.892;-123.962;2023-06-14T06:58:27;102043.59;;;13.21;77.42
51067;BME280;37112;45.892;-123.962;2023-06-14T07:01:02;102039.80;;;13.18;77.32
51067;BME280;37112;45.892;-123.962;2023-06-14T07:03:36;102038.09;;;13.13;77.17
51067;BME280;37112;45.892;-123.962;2023-06-14T07:06:11;102040.48;;;13.09;77.39
51067;BME280;37112;45.892;-123.962;2023-06-14T07:08:46;102040.41;;;13.01;77.08
51067;BME280;37112;45.892;-123.962;2023-06-14T07:11:20;102040.48;;;12.97;77.17
51067;BME280;37112;45.892;-123.962;2023-06-14T07:13:55;102040.77;;;12.92;77.20
51067;BME280;37112;45.892;-123.962;2023-06-14T07:16:23;102043.58;;;12.89;77.29
51067;BME280;37112;45.892;-123.962;2023-06-14T07:19:08;102041.02;;;12.87;77.64
51067;BME280;37112;45.892;-123.962;2023-06-14T07:21:35;102042.48;;;12.87;77.69
51067;BME280;37112;45.892;-123.962;2023-06-14T07:24:12;102039.69;;;12.86;77.82
51067;BME280;37112;45.892;-123.962;2023-06-14T07:26:47;102035.51;;;12.83;77.90
51067;BME280;37112;45.892;-123.962;2023-06-14T07:29:22;102032.69;;;12.82;77.94
51067;BME280;37112;45.892;-123.962;2023-06-14T07:31:59;102034.47;;;12.83;78.10
51067;BME280;37112;45.892;-123.962;2023-06-14T07:34:26;102038.67;;;12.85;78.18
51067;BME280;37112;45.892;-123.962;2023-06-14T07:36:56;102039.02;;;12.85;78.20
51067;BME280;37112;45.892;-123.962;2023-06-14T07:39:21;102037.09;;;12.87;78.34
51067;BME280;37112;45.892;-123.962;2023-06-14T07:41:57;102030.89;;;12.90;78.28
51067;BME280;37112;45.892;-123.962;2023-06-14T07:44:15;102027.93;;;12.91;78.41
51067;BME280;37112;45.892;-123.962;2023-06-14T07:46:43;102023.08;;;12.93;78.42
51067;BME280;37112;45.892;-123.962;2023-06-14T07:49:18;102022.23;;;12.85;77.94
51067;BME280;37112;45.892;-123.962;2023-06-14T07:51:54;102032.10;;;12.78;77.97
51067;BME280;37112;45.892;-123.962;2023-06-14T07:54:28;102034.35;;;12.76;78.11
51067;BME280;37112;45.892;-123.962;2023-06-14T07:57:04;102033.85;;;12.75;78.13
51067;BME280;37112;45.892;-123.962;2023-06-14T07:59:32;102031.93;;;12.74;78.18
51067;BME280;37112;45.892;-123.962;2023-06-14T08:02:06;102033.98;;;12.73;78.31
51067;BME280;37112;45.892;-123.962;2023-06-14T08:04:42;102038.17;;;12.71;78.28
51067;BME280;37112;45.892;-123.962;2023-06-14T08:07:17;102029.88;;;12.70;78.48
51067;BME280;37112;45.892;-123.962;2023-06-14T08:09:41;102024.00;;;12.70;78.52
51067;BME280;37112;45.892;-123.962;2023-06-14T08:12:07;102025.09;;;12.69;78.52
51067;BME280;37112;45.892;-123.962;2023-06-14T08:14:42;102026.67;;;12.70;78.73
51067;BME280;37112;45.892;-123.962;2023-06-14T08:17:22;102025.63;;;12.72;78.97
51067;BME280;37112;45.892;-123.962;2023-06-14T08:19:58;102026.41;;;12.74;79.00
51067;BME280;37112;45.892;-123.962;2023-06-14T08:22:32;102024.45;;;12.74;78.96
51067;BME280;37112;45.892;-123.962;2023-06-14T08:25:08;102024.56;;;12.75;78.97
51067;BME280;37112;45.892;-123.962;2023-06-14T08:27:45;102025.87;;;12.74;78.97
51067;BME280;37112;45.892;-123.962;2023-06-14T08:30:19;102031.45;;;12.73;78.83
51067;BME280;37112;45.892;-123.962;2023-06-14T08:32:43;102033.32;;;12.72;78.68
51067;BME280;37112;45.892;-123.962;2023-06-14T08:35:20;102031.05;;;12.68;78.50
51067;BME280;37112;45.892;-123.962;2023-06-14T08:37:44;102032.64;;;12.65;78.71
51067;BME280;37112;45.892;-123.962;2023-06-14T08:40:17;102026.67;;;12.60;78.63
51067;BME280;37112;45.892;-123.962;2023-06-14T08:42:44;102023.41;;;12.54;78.59
51067;BME280;37112;45.892;-123.962;2023-06-14T08:45:13;102023.52;;;12.46;78.38
51067;BME280;37112;45.892;-123.962;2023-06-14T08:47:50;102023.52;;;12.36;77.87
51067;BME280;37112;45.892;-123.962;2023-06-14T08:50:24;102026.55;;;12.26;77.45
51067;BME280;37112;45.892;-123.962;2023-06-14T08:53:04;102029.26;;;12.19;77.02
51067;BME280;37112;45.892;-123.962;2023-06-14T08:55:44;102032.90;;;12.18;77.14
51067;BME280;37112;45.892;-123.962;2023-06-14T08:58:21;102033.48;;;12.20;77.24
51067;BME280;37112;45.892;-123.962;2023-06-14T09:00:56;102032.11;;;12.22;77.11
51067;BME280;37112;45.892;-123.962;2023-06-14T09:03:32;102029.40;;;12.26;77.14
51067;BME280;37112;45.892;-123.962;2023-06-14T09:06:06;102022.95;;;12.31;77.17
51067;BME280;37112;45.892;-123.962;2023-06-14T09:08:35;102021.52;;;12.34;76.99
51067;BME280;37112;45.892;-123.962;2023-06-14T09:10:58;102027.33;;;12.35;76.91
51067;BME280;37112;45.892;-123.962;2023-06-14T09:13:36;102029.84;;;12.34;76.87
51067;BME280;37112;45.892;-123.962;2023-06-14T09:16:11;102032.52;;;12.34;76.78
51067;BME280;37112;45.892;-123.962;2023-06-14T09:18:36;102029.27;;;12.35;76.91
51067;BME280;37112;45.892;-123.962;2023-06-14T09:21:11;102030.73;;;12.38;77.07
51067;BME280;37112;45.892;-123.962;2023-06-14T09:23:47;102026.84;;;12.41;77.19
51067;BME280;37112;45.892;-123.962;2023-06-14T09:26:22;102021.88;;;12.43;77.18
51067;BME280;37112;45.892;-123.962;2023-06-14T09:28:49;102024.02;;;12.47;77.30
51067;BME280;37112;45.892;-123.962;2023-06-14T09:31:27;102022.70;;;12.51;77.46
51067;BME280;37112;45.892;-123.962;2023-06-14T09:33:55;102021.71;;;12.53;77.35
51067;BME280;37112;45.892;-123.962;2023-06-14T09:36:24;102020.38;;;12.54;77.43
51067;BME280;37112;45.892;-123.962;2023-06-14T09:39:01;102021.73;;;12.56;77.50
51067;BME280;37112;45.892;-123.962;2023-06-14T09:41:36;102026.45;;;12.58;77.49
51067;BME280;37112;45.892;-123.962;2023-06-14T09:44:13;102030.62;;;12.60;77.55
51067;BME280;37112;45.892;-123.962;2023-06-14T09:46:40;102028.79;;;12.61;77.61
51067;BME280;37112;45.892;-123.962;2023-06-14T09:49:15;102030.86;;;12.62;77.59
51067;BME280;37112;45.892;-123.962;2023-06-14T09:51:48;102031.50;;;12.63;77.64
51067;BME280;37112;45.892;-123.962;2023-06-14T09:54:25;102033.14;;;12.65;77.64
51067;BME280;37112;45.892;-123.962;2023-06-14T09:57:01;102027.75;;;12.66;77.63
51067;BME280;37112;45.892;-123.962;2023-06-14T09:59:39;102025.17;;;12.65;77.60
51067;BME280;37112;45.892;-123.962;2023-06-14T10:02:21;102022.48;;;12.62;77.52
51067;BME280;37112;45.892;-123.962;2023-06-14T10:04:41;102022.88;;;12.61;77.66
51067;BME280;37112;45.892;-123.962;2023-06-14T10:07:22;102019.09;;;12.62;77.87
51067;BME280;37112;45.892;-123.962;2023-06-14T10:09:53;102012.93;;;12.61;77.78
51067;BME280;37112;45.892;-123.962;2023-06-14T10:12:29;102011.16;;;12.60;77.79
51067;BME280;37112;45.892;-123.962;2023-06-14T10:15:05;102015.73;;;12.58;77.74
51067;BME280;37112;45.892;-123.962;2023-06-14T10:17:43;102012.50;;;12.55;77.87
51067;BME280;37112;45.892;-123.962;2023-06-14T10:20:33;102012.02;;;12.54;77.88
51067;BME280;37112;45.892;-123.962;2023-06-14T10:23:13;102009.52;;;12.51;77.87
51067;BME280;37112;45.892;-123.962;2023-06-14T10:25:43;102015.39;;;12.48;77.99
51067;BME280;37112;45.892;-123.962;2023-06-14T10:28:22;102017.77;;;12.47;78.27
51067;BME280;37112;45.892;-123.962;2023-06-14T10:31:11;102014.04;;;12.47;78.31
51067;BME280;37112;45.892;-123.962;2023-06-14T10:33:55;102013.80;;;12.44;78.22
51067;BME280;37112;45.892;-123.962;2023-06-14T10:36:35;102010.67;;;12.43;78.32
51067;BME280;37112;45.892;-123.962;2023-06-14T10:39:01;102009.07;;;12.43;78.59
51067;BME280;37112;45.892;-123.962;2023-06-14T10:41:38;102007.92;;;12.41;78.50
51067;BME280;37112;45.892;-123.962;2023-06-14T10:44:41;102004.16;;;12.38;78.31
51067;BME280;37112;45.892;-123.962;2023-06-14T10:47:23;101997.10;;;12.37;78.57
51067;BME280;37112;45.892;-123.962;2023-06-14T10:49:53;101992.56;;;12.36;78.64
51067;BME280;37112;45.892;-123.962;2023-06-14T10:52:29;101988.79;;;12.33;78.70
51067;BME280;37112;45.892;-123.962;2023-06-14T10:55:07;101987.65;;;12.31;78.75
51067;BME280;37112;45.892;-123.962;2023-06-14T10:57:47;101992.48;;;12.31;78.81
51067;BME280;37112;45.892;-123.962;2023-06-14T11:00:27;101989.84;;;12.31;78.84
51067;BME280;37112;45.892;-123.962;2023-06-14T11:03:31;101990.15;;;12.27;78.88
51067;BME280;37112;45.892;-123.962;2023-06-14T11:06:08;101986.90;;;12.25;78.86
51067;BME280;37112;45.892;-123.962;2023-06-14T11:09:06;101989.27;;;12.24;79.18
51067;BME280;37112;45.892;-123.962;2023-06-14T11:11:43;101991.34;;;12.25;79.29
51067;BME280;37112;45.892;-123.962;2023-06-14T11:14:19;101999.75;;;12.25;79.40
51067;BME280;37112;45.892;-123.962;2023-06-14T11:16:44;101999.08;;;12.24;79.38
51067;BME280;37112;45.892;-123.962;2023-06-14T11:19:21;101997.09;;;12.24;79.45
51067;BME280;37112;45.892;-123.962;2023-06-14T11:21:50;101992.41;;;12.25;79.55
51067;BME280;37112;45.892;-123.962;2023-06-14T11:24:27;101991.73;;;12.27;79.48
51067;BME280;37112;45.892;-123.962;2023-06-14T11:26:54;101990.23;;;12.30;79.59
51067;BME280;37112;45.892;-123.962;2023-06-14T11:29:33;101994.27;;;12.31;79.59
51067;BME280;37112;45.892;-123.962;2023-06-14T11:32:10;101996.40;;;12.31;79.43
51067;BME280;37112;45.892;-123.962;2023-06-14T11:34:37;102000.54;;;12.30;79.28
51067;BME280;37112;45.892;-123.962;2023-06-14T11:36:58;102003.13;;;12.28;79.35
51067;BME280;37112;45.892;-123.962;2023-06-14T11:39:33;102006.61;;;12.26;79.44
51067;BME280;37112;45.892;-123.962;2023-06-14T11:42:08;102010.62;;;12.25;79.64
51067;BME280;37112;45.892;-123.962;2023-06-14T11:44:34;102010.55;;;12.23;79.47
51067;BME280;37112;45.892;-123.962;2023-06-14T11:47:10;102016.97;;;12.19;79.42
51067;BME280;37112;45.892;-123.962;2023-06-14T11:49:43;102024.15;;;12.15;79.42
51067;BME280;37112;45.892;-123.962;2023-06-14T11:52:12;102028.58;;;12.12;79.35
51067;BME280;37112;45.892;-123.962;2023-06-14T11:54:41;102031.96;;;12.09;79.46
51067;BME280;37112;45.892;-123.962;2023-06-14T11:57:16;102035.61;;;12.07;79.53
51067;BME280;37112;45.892;-123.962;2023-06-14T11:59:54;102036.25;;;12.01;79.32
51067;BME280;37112;45.892;-123.962;2023-06-14T12:02:22;102039.08;;;11.95;79.33
51067;BME280;37112;45.892;-123.962;2023-06-14T12:05:03;102037.88;;;11.91;79.51
51067;BME280;37112;45.892;-123.962;2023-06-14T12:07:39;102037.98;;;11.89;79.70
51067;BME280;37112;45.892;-123.962;2023-06-14T12:10:10;102037.76;;;11.86;79.68
51067;BME280;37112;45.892;-123.962;2023-06-14T12:12:46;102039.30;;;11.84;79.71
51067;BME280;37112;45.892;-123.962;2023-06-14T12:15:20;102043.71;;;11.85;80.04
51067;BME280;37112;45.892;-123.962;2023-06-14T12:17:46;102048.96;;;11.86;80.10
51067;BME280;37112;45.892;-123.962;2023-06-14T12:20:21;102051.74;;;11.87;80.34
51067;BME280;37112;45.892;-123.962;2023-06-14T12:22:59;102048.42;;;11.90;80.56
51067;BME280;37112;45.892;-123.962;2023-06-14T12:25:35;102047.91;;;11.93;80.65
51067;BME280;37112;45.892;-123.962;2023-06-14T12:28:09;102054.36;;;11.95;80.73
51067;BME280;37112;45.892;-123.962;2023-06-14T12:30:44;102054.08;;;11.97;80.82
51067;BME280;37112;45.892;-123.962;2023-06-14T12:33:19;102052.60;;;11.98;80.77
51067;BME280;37112;45.892;-123.962;2023-06-14T12:35:45;102052.89;;;12.00;80.80
51067;BME280;37112;45.892;-123.962;2023-06-14T12:38:19;102047.09;;;12.02;80.96
51067;BME280;37112;45.892;-123.962;2023-06-14T12:40:54;102048.04;;;12.01;80.76